sensor_id;sensor_type;location;lat;lon;timestamp;P1;durP1;ratioP1;P2;durP2;ratioP2
43088;SDS011;28709;52.030;5.652;2022-12-15T00:01:09;27.42;;;13.65;;
43088;SDS011;28709;52.030;5.652;2022-12-15T00:03:52;29.27;;;12.65;;
43088;SDS011;28709;52.030;5.652;2022-12-15T00:06:37;24.95;;;10.85;;
43088;SDS011;28709;52.030;5.652;2022-12-15T00:09:21;26.80;;;11.52;;
43088;SDS011;28709;52.030;5.652;2022-12-15T00:12:05;32.00;;;13.40;;
43088;SDS011;28709;52.030;5.652;2022-12-15T00:14:49;35.42;;;14.80;;
43088;SDS011;28709;52.030;5.652;2022-12-15T00:17:33;37.78;;;13.70;;
43088;SDS011;28709;52.030;5.652;2022-12-15T00:20:17;28.42;;;12.80;;
43088;SDS011;28709;52.030;5.652;2022-12-15T00:23:08;28.88;;;10.85;;
43088;SDS011;28709;52.030;5.652;2022-12-15T00:25:53;25.70;;;11.90;;
43088;SDS011;28709;52.030;5.652;2022-12-15T00:28:37;28.33;;;11.80;;
43088;SDS011;28709;52.030;5.652;2022-12-15T00:31:21;28.38;;;13.27;;
43088;SDS011;28709;52.030;5.652;2022-12-15T00:34:05;31.35;;;13.10;;
43088;SDS011;28709;52.030;5.652;2022-12-15T00:36:50;24.85;;;10.88;;
43088;SDS011;28709;52.030;5.652;2022-12-15T00:39:34;25.15;;;11.07;;
43088;SDS011;28709;52.030;5.652;2022-12-15T00:42:00;28.13;;;11.83;;
43088;SDS011;28709;52.030;5.652;2022-12-15T00:44:25;33.77;;;13.13;;
43088;SDS011;28709;52.030;5.652;2022-12-15T00:46:51;26.87;;;12.23;;
43088;SDS011;28709;52.030;5.652;2022-12-15T00:49:20;27.70;;;12.37;;
43088;SDS011;28709;52.030;5.652;2022-12-15T00:52:08;19.07;;;9.10;;
43088;SDS011;28709;52.030;5.652;2022-12-15T00:54:53;26.50;;;10.27;;
43088;SDS011;28709;52.030;5.652;2022-12-15T00:57:37;32.47;;;12.93;;
43088;SDS011;28709;52.030;5.652;2022-12-15T01:00:21;29.95;;;11.45;;
43088;SDS011;28709;52.030;5.652;2022-12-15T01:03:09;29.38;;;12.63;;
43088;SDS011;28709;52.030;5.652;2022-12-15T01:05:58;30.20;;;10.83;;
43088;SDS011;28709;52.030;5.652;2022-12-15T01:08:42;26.65;;;11.90;;
43088;SDS011;28709;52.030;5.652;2022-12-15T01:11:27;23.80;;;10.30;;
43088;SDS011;28709;52.030;5.652;2022-12-15T01:14:12;22.00;;;9.60;;
43088;SDS011;28709;52.030;5.652;2022-12-15T01:16:56;26.05;;;10.82;;
43088;SDS011;28709;52.030;5.652;2022-12-15T01:19:40;20.42;;;9.25;;
43088;SDS011;28709;52.030;5.652;2022-12-15T01:22:25;21.70;;;9.43;;
43088;SDS011;28709;52.030;5.652;2022-12-15T01:24:51;19.80;;;8.57;;
43088;SDS011;28709;52.030;5.652;2022-12-15T01:27:16;19.80;;;7.67;;
43088;SDS011;28709;52.030;5.652;2022-12-15T01:29:42;18.30;;;7.10;;
43088;SDS011;28709;52.030;5.652;2022-12-15T01:32:08;22.93;;;8.70;;
43088;SDS011;28709;52.030;5.652;2022-12-15T01:34:34;18.97;;;8.40;;
43088;SDS011;28709;52.030;5.652;2022-12-15T01:36:59;18.37;;;8.27;;
43088;SDS011;28709;52.030;5.652;2022-12-15T01:39:25;29.93;;;12.77;;
43088;SDS011;28709;52.030;5.652;2022-12-15T01:42:14;28.73;;;11.30;;
43088;SDS011;28709;52.030;5.652;2022-12-15T01:44:39;22.57;;;9.77;;
43088;SDS011;28709;52.030;5.652;2022-12-15T01:47:06;20.73;;;8.13;;
43088;SDS011;28709;52.030;5.652;2022-12-15T01:49:36;25.13;;;11.43;;
43088;SDS011;28709;52.030;5.652;2022-12-15T01:52:03;27.87;;;11.93;;
43088;SDS011;28709;52.030;5.652;2022-12-15T01:54:35;21.90;;;9.83;;
43088;SDS011;28709;52.030;5.652;2022-12-15T01:57:08;31.57;;;12.47;;
43088;SDS011;28709;52.030;5.652;2022-12-15T01:59:40;26.93;;;12.87;;
43088;SDS011;28709;52.030;5.652;2022-12-15T02:02:11;27.17;;;12.77;;
43088;SDS011;28709;52.030;5.652;2022-12-15T02:04:38;31.30;;;13.37;;
43088;SDS011;28709;52.030;5.652;2022-12-15T02:07:05;34.63;;;12.07;;
43088;SDS011;28709;52.030;5.652;2022-12-15T02:09:36;23.97;;;11.03;;
43088;SDS011;28709;52.030;5.652;2022-12-15T02:12:07;27.40;;;11.80;;
43088;SDS011;28709;52.030;5.652;2022-12-15T02:26:02;27.13;;;12.23;;
43088;SDS011;28709;52.030;5.652;2022-12-15T02:31:27;26.60;;;12.60;;
43088;SDS011;28709;52.030;5.652;2022-12-15T02:36:48;24.43;;;12.57;;
43088;SDS011;28709;52.030;5.652;2022-12-15T02:39:19;25.67;;;11.87;;
43088;SDS011;28709;52.030;5.652;2022-12-15T02:41:47;23.27;;;11.07;;
43088;SDS011;28709;52.030;5.652;2022-12-15T02:44:19;30.37;;;11.70;;
43088;SDS011;28709;52.030;5.652;2022-12-15T02:50:05;28.03;;;12.93;;
43088;SDS011;28709;52.030;5.652;2022-12-15T02:55:17;24.40;;;12.53;;
43088;SDS011;28709;52.030;5.652;2022-12-15T02:58:01;32.00;;;11.75;;
43088;SDS011;28709;52.030;5.652;2022-12-15T03:03:06;26.33;;;12.07;;
43088;SDS011;28709;52.030;5.652;2022-12-15T03:05:32;26.97;;;11.17;;
43088;SDS011;28709;52.030;5.652;2022-12-15T03:07:58;37.50;;;11.83;;
43088;SDS011;28709;52.030;5.652;2022-12-15T03:10:24;24.13;;;12.60;;
43088;SDS011;28709;52.030;5.652;2022-12-15T03:12:50;25.23;;;12.13;;
43088;SDS011;28709;52.030;5.652;2022-12-15T03:15:17;26.83;;;11.93;;
43088;SDS011;28709;52.030;5.652;2022-12-15T03:17:43;20.90;;;9.73;;
43088;SDS011;28709;52.030;5.652;2022-12-15T03:20:08;33.37;;;12.77;;
43088;SDS011;28709;52.030;5.652;2022-12-15T03:22:35;25.50;;;11.77;;
43088;SDS011;28709;52.030;5.652;2022-12-15T03:25:01;23.50;;;11.20;;
43088;SDS011;28709;52.030;5.652;2022-12-15T03:27:28;30.23;;;14.17;;
43088;SDS011;28709;52.030;5.652;2022-12-15T03:29:54;25.30;;;11.30;;
43088;SDS011;28709;52.030;5.652;2022-12-15T03:32:20;24.23;;;11.70;;
43088;SDS011;28709;52.030;5.652;2022-12-15T03:34:46;28.33;;;11.40;;
43088;SDS011;28709;52.030;5.652;2022-12-15T03:37:11;24.10;;;11.33;;
43088;SDS011;28709;52.030;5.652;2022-12-15T03:39:37;22.63;;;10.00;;
43088;SDS011;28709;52.030;5.652;2022-12-15T03:42:03;22.70;;;10.13;;
43088;SDS011;28709;52.030;5.652;2022-12-15T03:44:28;19.43;;;8.33;;
43088;SDS011;28709;52.030;5.652;2022-12-15T03:46:54;19.67;;;9.93;;
43088;SDS011;28709;52.030;5.652;2022-12-15T03:49:20;24.37;;;9.80;;
43088;SDS011;28709;52.030;5.652;2022-12-15T03:51:45;20.67;;;9.07;;
43088;SDS011;28709;52.030;5.652;2022-12-15T03:54:12;24.77;;;11.23;;
43088;SDS011;28709;52.030;5.652;2022-12-15T03:56:38;23.87;;;10.23;;
43088;SDS011;28709;52.030;5.652;2022-12-15T03:59:04;25.80;;;11.80;;
43088;SDS011;28709;52.030;5.652;2022-12-15T04:01:33;30.00;;;11.90;;
43088;SDS011;28709;52.030;5.652;2022-12-15T04:04:00;27.77;;;11.67;;
43088;SDS011;28709;52.030;5.652;2022-12-15T04:06:27;27.20;;;12.07;;
43088;SDS011;28709;52.030;5.652;2022-12-15T04:08:53;30.00;;;12.53;;
43088;SDS011;28709;52.030;5.652;2022-12-15T04:11:19;24.67;;;11.97;;
43088;SDS011;28709;52.030;5.652;2022-12-15T04:13:45;28.00;;;12.00;;
43088;SDS011;28709;52.030;5.652;2022-12-15T04:16:11;25.77;;;11.10;;
43088;SDS011;28709;52.030;5.652;2022-12-15T04:18:37;25.03;;;11.57;;
43088;SDS011;28709;52.030;5.652;2022-12-15T04:21:02;30.67;;;13.93;;
43088;SDS011;28709;52.030;5.652;2022-12-15T04:23:28;26.17;;;11.40;;
43088;SDS011;28709;52.030;5.652;2022-12-15T04:25:54;20.60;;;10.03;;
43088;SDS011;28709;52.030;5.652;2022-12-15T04:28:38;20.40;;;9.18;;
43088;SDS011;28709;52.030;5.652;2022-12-15T04:31:23;19.50;;;8.80;;
43088;SDS011;28709;52.030;5.652;2022-12-15T04:34:15;17.93;;;8.60;;
43088;SDS011;28709;52.030;5.652;2022-12-15T04:37:02;19.60;;;8.67;;
43088;SDS011;28709;52.030;5.652;2022-12-15T04:39:49;25.30;;;10.60;;
43088;SDS011;28709;52.030;5.652;2022-12-15T04:42:38;30.53;;;11.77;;
43088;SDS011;28709;52.030;5.652;2022-12-15T04:45:25;27.60;;;12.17;;
43088;SDS011;28709;52.030;5.652;2022-12-15T04:48:10;24.60;;;10.20;;
43088;SDS011;28709;52.030;5.652;2022-12-15T04:50:54;24.83;;;10.13;;
43088;SDS011;28709;52.030;5.652;2022-12-15T04:53:38;19.08;;;8.77;;
43088;SDS011;28709;52.030;5.652;2022-12-15T04:56:22;25.38;;;11.85;;
43088;SDS011;28709;52.030;5.652;2022-12-15T04:59:07;20.88;;;9.77;;
43088;SDS011;28709;52.030;5.652;2022-12-15T05:01:51;26.30;;;11.70;;
43088;SDS011;28709;52.030;5.652;2022-12-15T05:04:35;31.42;;;11.57;;
43088;SDS011;28709;52.030;5.652;2022-12-15T05:07:20;27.70;;;12.35;;
43088;SDS011;28709;52.030;5.652;2022-12-15T05:10:04;28.15;;;12.85;;
43088;SDS011;28709;52.030;5.652;2022-12-15T05:12:49;24.37;;;11.30;;
43088;SDS011;28709;52.030;5.652;2022-12-15T05:15:33;26.13;;;11.32;;
43088;SDS011;28709;52.030;5.652;2022-12-15T05:18:18;19.53;;;10.37;;
43088;SDS011;28709;52.030;5.652;2022-12-15T05:21:02;22.55;;;10.20;;
43088;SDS011;28709;52.030;5.652;2022-12-15T05:23:47;31.77;;;13.52;;
43088;SDS011;28709;52.030;5.652;2022-12-15T05:26:31;23.75;;;10.50;;
43088;SDS011;28709;52.030;5.652;2022-12-15T05:29:15;24.15;;;12.32;;
43088;SDS011;28709;52.030;5.652;2022-12-15T05:32:00;29.77;;;12.45;;
43088;SDS011;28709;52.030;5.652;2022-12-15T05:34:27;28.77;;;12.80;;
43088;SDS011;28709;52.030;5.652;2022-12-15T05:36:55;29.33;;;13.33;;
43088;SDS011;28709;52.030;5.652;2022-12-15T05:39:23;23.23;;;10.43;;
43088;SDS011;28709;52.030;5.652;2022-12-15T05:41:50;24.13;;;10.87;;
43088;SDS011;28709;52.030;5.652;2022-12-15T05:44:16;22.27;;;10.57;;
43088;SDS011;28709;52.030;5.652;2022-12-15T05:46:42;31.03;;;13.50;;
43088;SDS011;28709;52.030;5.652;2022-12-15T05:49:10;33.50;;;13.17;;
43088;SDS011;28709;52.030;5.652;2022-12-15T05:51:39;27.90;;;13.03;;
43088;SDS011;28709;52.030;5.652;2022-12-15T05:54:06;27.30;;;11.37;;
43088;SDS011;28709;52.030;5.652;2022-12-15T05:56:33;27.80;;;11.90;;
43088;SDS011;28709;52.030;5.652;2022-12-15T05:58:58;29.00;;;13.47;;
43088;SDS011;28709;52.030;5.652;2022-12-15T06:01:24;27.70;;;12.37;;
43088;SDS011;28709;52.030;5.652;2022-12-15T06:03:51;24.00;;;11.40;;
43088;SDS011;28709;52.030;5.652;2022-12-15T06:06:17;31.97;;;12.90;;
43088;SDS011;28709;52.030;5.652;2022-12-15T06:08:43;21.97;;;10.23;;
43088;SDS011;28709;52.030;5.652;2022-12-15T06:11:10;28.57;;;12.57;;
43088;SDS011;28709;52.030;5.652;2022-12-15T06:13:39;28.53;;;11.83;;
43088;SDS011;28709;52.030;5.652;2022-12-15T06:16:08;27.67;;;12.87;;
43088;SDS011;28709;52.030;5.652;2022-12-15T06:18:36;27.67;;;12.90;;
43088;SDS011;28709;52.030;5.652;2022-12-15T06:21:11;27.67;;;13.33;;
43088;SDS011;28709;52.030;5.652;2022-12-15T06:23:39;30.57;;;12.67;;
43088;SDS011;28709;52.030;5.652;2022-12-15T06:26:09;25.33;;;12.80;;
43088;SDS011;28709;52.030;5.652;2022-12-15T06:28:38;30.03;;;12.67;;
43088;SDS011;28709;52.030;5.652;2022-12-15T06:31:04;27.20;;;13.17;;
43088;SDS011;28709;52.030;5.652;2022-12-15T06:33:31;24.57;;;10.73;;
43088;SDS011;28709;52.030;5.652;2022-12-15T06:36:04;31.57;;;12.50;;
43088;SDS011;28709;52.030;5.652;2022-12-15T06:38:32;24.13;;;11.88;;
43088;SDS011;28709;52.030;5.652;2022-12-15T06:40:58;29.70;;;12.53;;
43088;SDS011;28709;52.030;5.652;2022-12-15T06:43:28;26.57;;;12.53;;
43088;SDS011;28709;52.030;5.652;2022-12-15T06:45:54;32.07;;;11.90;;
43088;SDS011;28709;52.030;5.652;2022-12-15T06:48:21;31.63;;;12.70;;
43088;SDS011;28709;52.030;5.652;2022-12-15T06:50:48;31.00;;;13.97;;
43088;SDS011;28709;52.030;5.652;2022-12-15T06:53:15;31.83;;;13.77;;
43088;SDS011;28709;52.030;5.652;2022-12-15T06:55:41;25.60;;;10.73;;
43088;SDS011;28709;52.030;5.652;2022-12-15T06:58:08;29.47;;;13.73;;
43088;SDS011;28709;52.030;5.652;2022-12-15T07:00:36;30.67;;;12.70;;
43088;SDS011;28709;52.030;5.652;2022-12-15T07:03:02;30.17;;;13.10;;
43088;SDS011;28709;52.030;5.652;2022-12-15T07:05:30;32.60;;;13.70;;
43088;SDS011;28709;52.030;5.652;2022-12-15T07:07:56;25.73;;;11.77;;
43088;SDS011;28709;52.030;5.652;2022-12-15T07:10:22;30.23;;;14.43;;
43088;SDS011;28709;52.030;5.652;2022-12-15T07:12:47;27.83;;;12.53;;
43088;SDS011;28709;52.030;5.652;2022-12-15T07:15:13;28.73;;;14.90;;
43088;SDS011;28709;52.030;5.652;2022-12-15T07:17:39;30.83;;;14.53;;
43088;SDS011;28709;52.030;5.652;2022-12-15T07:20:05;34.10;;;14.27;;
43088;SDS011;28709;52.030;5.652;2022-12-15T07:22:31;24.93;;;11.67;;
43088;SDS011;28709;52.030;5.652;2022-12-15T07:24:58;26.70;;;12.30;;
43088;SDS011;28709;52.030;5.652;2022-12-15T07:27:23;26.13;;;12.67;;
43088;SDS011;28709;52.030;5.652;2022-12-15T07:29:49;38.30;;;14.07;;
43088;SDS011;28709;52.030;5.652;2022-12-15T07:32:15;35.70;;;14.03;;
43088;SDS011;28709;52.030;5.652;2022-12-15T07:34:41;33.37;;;15.30;;
43088;SDS011;28709;52.030;5.652;2022-12-15T07:37:06;34.03;;;14.03;;
43088;SDS011;28709;52.030;5.652;2022-12-15T07:39:33;30.47;;;14.20;;
43088;SDS011;28709;52.030;5.652;2022-12-15T07:41:58;32.73;;;14.77;;
43088;SDS011;28709;52.030;5.652;2022-12-15T07:44:24;41.53;;;16.27;;
43088;SDS011;28709;52.030;5.652;2022-12-15T07:46:50;37.10;;;17.00;;
43088;SDS011;28709;52.030;5.652;2022-12-15T07:49:16;42.17;;;17.00;;
43088;SDS011;28709;52.030;5.652;2022-12-15T07:51:42;37.03;;;15.07;;
43088;SDS011;28709;52.030;5.652;2022-12-15T07:54:09;34.43;;;14.80;;
43088;SDS011;28709;52.030;5.652;2022-12-15T07:56:36;34.17;;;14.90;;
43088;SDS011;28709;52.030;5.652;2022-12-15T07:59:03;33.57;;;15.60;;
43088;SDS011;28709;52.030;5.652;2022-12-15T08:01:29;34.10;;;13.50;;
43088;SDS011;28709;52.030;5.652;2022-12-15T08:03:55;32.10;;;13.93;;
43088;SDS011;28709;52.030;5.652;2022-12-15T08:06:20;49.80;;;16.27;;
43088;SDS011;28709;52.030;5.652;2022-12-15T08:08:46;41.93;;;16.17;;
43088;SDS011;28709;52.030;5.652;2022-12-15T08:11:13;38.40;;;15.67;;
43088;SDS011;28709;52.030;5.652;2022-12-15T08:13:40;44.50;;;15.60;;
43088;SDS011;28709;52.030;5.652;2022-12-15T08:16:07;31.37;;;15.30;;
43088;SDS011;28709;52.030;5.652;2022-12-15T08:18:33;33.03;;;14.43;;
43088;SDS011;28709;52.030;5.652;2022-12-15T08:21:03;34.63;;;16.57;;
43088;SDS011;28709;52.030;5.652;2022-12-15T08:23:33;37.08;;;16.98;;
43088;SDS011;28709;52.030;5.652;2022-12-15T08:26:03;37.50;;;17.00;;
43088;SDS011;28709;52.030;5.652;2022-12-15T08:28:30;34.70;;;14.87;;
43088;SDS011;28709;52.030;5.652;2022-12-15T08:31:01;40.63;;;16.10;;
43088;SDS011;28709;52.030;5.652;2022-12-15T08:33:27;36.23;;;16.37;;
43088;SDS011;28709;52.030;5.652;2022-12-15T08:35:56;30.17;;;14.10;;
43088;SDS011;28709;52.030;5.652;2022-12-15T08:38:26;43.40;;;19.10;;
43088;SDS011;28709;52.030;5.652;2022-12-15T08:40:52;42.97;;;15.43;;
43088;SDS011;28709;52.030;5.652;2022-12-15T08:43:18;30.93;;;14.67;;
43088;SDS011;28709;52.030;5.652;2022-12-15T08:45:43;31.87;;;13.67;;
43088;SDS011;28709;52.030;5.652;2022-12-15T08:48:09;33.93;;;14.43;;
43088;SDS011;28709;52.030;5.652;2022-12-15T08:50:35;32.33;;;12.70;;
43088;SDS011;28709;52.030;5.652;2022-12-15T08:53:00;29.43;;;14.20;;
43088;SDS011;28709;52.030;5.652;2022-12-15T08:55:26;39.10;;;17.00;;
43088;SDS011;28709;52.030;5.652;2022-12-15T08:57:52;31.67;;;15.63;;
43088;SDS011;28709;52.030;5.652;2022-12-15T09:00:18;30.73;;;14.27;;
43088;SDS011;28709;52.030;5.652;2022-12-15T09:02:44;34.73;;;16.33;;
43088;SDS011;28709;52.030;5.652;2022-12-15T09:05:10;32.27;;;16.23;;
43088;SDS011;28709;52.030;5.652;2022-12-15T09:07:35;30.03;;;15.37;;
43088;SDS011;28709;52.030;5.652;2022-12-15T09:10:01;35.80;;;18.50;;
43088;SDS011;28709;52.030;5.652;2022-12-15T09:12:27;40.47;;;16.57;;
43088;SDS011;28709;52.030;5.652;2022-12-15T09:14:53;35.17;;;15.20;;
43088;SDS011;28709;52.030;5.652;2022-12-15T09:17:18;39.33;;;16.57;;
43088;SDS011;28709;52.030;5.652;2022-12-15T09:19:44;27.90;;;14.33;;
43088;SDS011;28709;52.030;5.652;2022-12-15T09:22:10;32.03;;;15.10;;
43088;SDS011;28709;52.030;5.652;2022-12-15T09:24:35;28.65;;;15.30;;
43088;SDS011;28709;52.030;5.652;2022-12-15T09:27:01;34.33;;;16.40;;
43088;SDS011;28709;52.030;5.652;2022-12-15T09:29:27;36.15;;;17.50;;
43088;SDS011;28709;52.030;5.652;2022-12-15T09:31:53;32.13;;;16.33;;
43088;SDS011;28709;52.030;5.652;2022-12-15T09:34:18;31.20;;;14.73;;
43088;SDS011;28709;52.030;5.652;2022-12-15T09:36:44;36.00;;;16.75;;
43088;SDS011;28709;52.030;5.652;2022-12-15T09:39:10;34.17;;;16.90;;
43088;SDS011;28709;52.030;5.652;2022-12-15T09:41:36;31.63;;;15.68;;
43088;SDS011;28709;52.030;5.652;2022-12-15T09:44:13;30.83;;;15.07;;
43088;SDS011;28709;52.030;5.652;2022-12-15T09:49:54;30.52;;;15.05;;
43088;SDS011;28709;52.030;5.652;2022-12-15T09:55:16;33.03;;;15.52;;
43088;SDS011;28709;52.030;5.652;2022-12-15T09:57:48;33.55;;;15.90;;
43088;SDS011;28709;52.030;5.652;2022-12-15T10:08:33;35.60;;;16.55;;
43088;SDS011;28709;52.030;5.652;2022-12-15T10:11:10;32.15;;;16.63;;
43088;SDS011;28709;52.030;5.652;2022-12-15T10:13:54;24.25;;;13.23;;
43088;SDS011;28709;52.030;5.652;2022-12-15T10:19:11;35.72;;;15.88;;
43088;SDS011;28709;52.030;5.652;2022-12-15T10:21:55;27.30;;;15.70;;
43088;SDS011;28709;52.030;5.652;2022-12-15T10:24:22;30.17;;;16.02;;
43088;SDS011;28709;52.030;5.652;2022-12-15T10:26:52;31.00;;;16.75;;
43088;SDS011;28709;52.030;5.652;2022-12-15T10:29:45;35.10;;;15.35;;
43088;SDS011;28709;52.030;5.652;2022-12-15T10:32:19;37.65;;;15.55;;
43088;SDS011;28709;52.030;5.652;2022-12-15T10:34:56;29.73;;;16.80;;
43088;SDS011;28709;52.030;5.652;2022-12-15T10:37:21;41.78;;;17.23;;
43088;SDS011;28709;52.030;5.652;2022-12-15T10:39:48;30.70;;;14.98;;
43088;SDS011;28709;52.030;5.652;2022-12-15T10:42:16;33.85;;;18.38;;
43088;SDS011;28709;52.030;5.652;2022-12-15T10:44:47;26.67;;;14.07;;
43088;SDS011;28709;52.030;5.652;2022-12-15T10:47:26;29.75;;;16.70;;
43088;SDS011;28709;52.030;5.652;2022-12-15T10:49:53;31.45;;;16.48;;
43088;SDS011;28709;52.030;5.652;2022-12-15T10:52:30;33.78;;;15.80;;
43088;SDS011;28709;52.030;5.652;2022-12-15T10:54:59;27.17;;;14.90;;
43088;SDS011;28709;52.030;5.652;2022-12-15T10:57:26;23.77;;;14.27;;
43088;SDS011;28709;52.030;5.652;2022-12-15T10:59:56;29.05;;;14.50;;
43088;SDS011;28709;52.030;5.652;2022-12-15T11:02:39;28.38;;;14.73;;
43088;SDS011;28709;52.030;5.652;2022-12-15T11:07:44;32.72;;;17.45;;
43088;SDS011;28709;52.030;5.652;2022-12-15T11:10:15;26.90;;;15.35;;
43088;SDS011;28709;52.030;5.652;2022-12-15T11:13:14;30.65;;;16.15;;
43088;SDS011;28709;52.030;5.652;2022-12-15T11:15:50;31.23;;;16.25;;
43088;SDS011;28709;52.030;5.652;2022-12-15T11:18:23;37.72;;;17.13;;
43088;SDS011;28709;52.030;5.652;2022-12-15T11:21:09;28.58;;;14.48;;
43088;SDS011;28709;52.030;5.652;2022-12-15T11:31:50;27.30;;;14.73;;
43088;SDS011;28709;52.030;5.652;2022-12-15T11:34:18;26.10;;;14.45;;
43088;SDS011;28709;52.030;5.652;2022-12-15T11:37:48;27.35;;;14.85;;
43088;SDS011;28709;52.030;5.652;2022-12-15T11:40:11;27.88;;;16.17;;
43088;SDS011;28709;52.030;5.652;2022-12-15T11:48:20;32.40;;;16.55;;
43088;SDS011;28709;52.030;5.652;2022-12-15T12:07:26;38.72;;;17.95;;
43088;SDS011;28709;52.030;5.652;2022-12-15T12:12:59;30.92;;;16.85;;
43088;SDS011;28709;52.030;5.652;2022-12-15T12:18:53;36.72;;;17.23;;
43088;SDS011;28709;52.030;5.652;2022-12-15T12:21:32;26.45;;;15.30;;
43088;SDS011;28709;52.030;5.652;2022-12-15T12:24:17;31.75;;;16.17;;
43088;SDS011;28709;52.030;5.652;2022-12-15T12:26:45;35.30;;;16.08;;
43088;SDS011;28709;52.030;5.652;2022-12-15T12:32:23;24.98;;;14.13;;
43088;SDS011;28709;52.030;5.652;2022-12-15T12:35:03;23.80;;;14.07;;
43088;SDS011;28709;52.030;5.652;2022-12-15T12:37:41;23.92;;;14.70;;
43088;SDS011;28709;52.030;5.652;2022-12-15T12:40:20;27.92;;;14.38;;
43088;SDS011;28709;52.030;5.652;2022-12-15T12:42:52;23.10;;;13.95;;
43088;SDS011;28709;52.030;5.652;2022-12-15T12:45:21;26.48;;;14.60;;
43088;SDS011;28709;52.030;5.652;2022-12-15T12:47:57;24.80;;;14.20;;
43088;SDS011;28709;52.030;5.652;2022-12-15T12:50:30;30.98;;;15.82;;
43088;SDS011;28709;52.030;5.652;2022-12-15T12:52:59;30.35;;;16.63;;
43088;SDS011;28709;52.030;5.652;2022-12-15T12:55:39;27.13;;;15.30;;
43088;SDS011;28709;52.030;5.652;2022-12-15T13:04:03;30.23;;;15.93;;
43088;SDS011;28709;52.030;5.652;2022-12-15T13:09:04;39.38;;;18.95;;
43088;SDS011;28709;52.030;5.652;2022-12-15T13:14:17;39.05;;;18.90;;
43088;SDS011;28709;52.030;5.652;2022-12-15T13:16:48;33.08;;;16.83;;
43088;SDS011;28709;52.030;5.652;2022-12-15T13:22:38;35.45;;;18.30;;
43088;SDS011;28709;52.030;5.652;2022-12-15T13:27:59;32.65;;;17.30;;
43088;SDS011;28709;52.030;5.652;2022-12-15T13:31:10;47.17;;;17.85;;
43088;SDS011;28709;52.030;5.652;2022-12-15T13:41:43;32.10;;;16.90;;
43088;SDS011;28709;52.030;5.652;2022-12-15T13:44:29;31.52;;;16.38;;
43088;SDS011;28709;52.030;5.652;2022-12-15T13:47:10;32.85;;;16.35;;
43088;SDS011;28709;52.030;5.652;2022-12-15T13:52:42;28.73;;;15.55;;
43088;SDS011;28709;52.030;5.652;2022-12-15T13:55:19;31.40;;;16.08;;
43088;SDS011;28709;52.030;5.652;2022-12-15T13:58:06;29.75;;;15.73;;
43088;SDS011;28709;52.030;5.652;2022-12-15T14:00:51;27.85;;;15.93;;
43088;SDS011;28709;52.030;5.652;2022-12-15T14:03:21;27.40;;;15.85;;
43088;SDS011;28709;52.030;5.652;2022-12-15T14:05:57;33.95;;;16.23;;
43088;SDS011;28709;52.030;5.652;2022-12-15T14:08:24;32.42;;;16.25;;
43088;SDS011;28709;52.030;5.652;2022-12-15T14:10:53;32.00;;;16.15;;
43088;SDS011;28709;52.030;5.652;2022-12-15T14:13:32;30.50;;;15.75;;
43088;SDS011;28709;52.030;5.652;2022-12-15T14:18:35;30.33;;;16.90;;
43088;SDS011;28709;52.030;5.652;2022-12-15T14:21:21;36.15;;;16.70;;
43088;SDS011;28709;52.030;5.652;2022-12-15T14:23:50;34.65;;;18.55;;
43088;SDS011;28709;52.030;5.652;2022-12-15T14:26:16;38.72;;;19.63;;
43088;SDS011;28709;52.030;5.652;2022-12-15T14:28:44;38.03;;;19.60;;
43088;SDS011;28709;52.030;5.652;2022-12-15T14:31:11;37.47;;;18.88;;
43088;SDS011;28709;52.030;5.652;2022-12-15T14:33:39;32.78;;;16.88;;
43088;SDS011;28709;52.030;5.652;2022-12-15T14:36:09;32.65;;;18.45;;
43088;SDS011;28709;52.030;5.652;2022-12-15T14:41:35;39.28;;;19.02;;
43088;SDS011;28709;52.030;5.652;2022-12-15T14:44:04;30.58;;;16.75;;
43088;SDS011;28709;52.030;5.652;2022-12-15T14:46:32;34.92;;;18.45;;
43088;SDS011;28709;52.030;5.652;2022-12-15T14:48:59;42.35;;;19.60;;
43088;SDS011;28709;52.030;5.652;2022-12-15T14:51:31;34.42;;;17.02;;
43088;SDS011;28709;52.030;5.652;2022-12-15T14:54:30;33.15;;;17.67;;
43088;SDS011;28709;52.030;5.652;2022-12-15T14:57:02;32.45;;;17.83;;
43088;SDS011;28709;52.030;5.652;2022-12-15T14:59:39;38.33;;;20.88;;
43088;SDS011;28709;52.030;5.652;2022-12-15T15:02:11;34.17;;;19.65;;
43088;SDS011;28709;52.030;5.652;2022-12-15T15:04:37;33.90;;;19.15;;
43088;SDS011;28709;52.030;5.652;2022-12-15T15:07:05;33.88;;;20.15;;
43088;SDS011;28709;52.030;5.652;2022-12-15T15:09:42;48.47;;;24.20;;
43088;SDS011;28709;52.030;5.652;2022-12-15T15:12:14;39.85;;;20.48;;
43088;SDS011;28709;52.030;5.652;2022-12-15T15:14:46;42.45;;;20.30;;
43088;SDS011;28709;52.030;5.652;2022-12-15T15:17:22;41.17;;;20.63;;
43088;SDS011;28709;52.030;5.652;2022-12-15T15:20:03;43.55;;;19.63;;
43088;SDS011;28709;52.030;5.652;2022-12-15T15:22:36;38.08;;;19.80;;
43088;SDS011;28709;52.030;5.652;2022-12-15T15:27:59;41.05;;;22.27;;
43088;SDS011;28709;52.030;5.652;2022-12-15T15:30:44;43.00;;;22.60;;
43088;SDS011;28709;52.030;5.652;2022-12-15T15:33:11;39.17;;;21.58;;
43088;SDS011;28709;52.030;5.652;2022-12-15T15:35:38;40.88;;;21.08;;
43088;SDS011;28709;52.030;5.652;2022-12-15T15:41:00;44.90;;;24.50;;
43088;SDS011;28709;52.030;5.652;2022-12-15T15:43:35;46.78;;;25.20;;
43088;SDS011;28709;52.030;5.652;2022-12-15T15:46:03;47.72;;;22.55;;
43088;SDS011;28709;52.030;5.652;2022-12-15T15:48:43;47.03;;;23.67;;
43088;SDS011;28709;52.030;5.652;2022-12-15T15:51:10;42.33;;;21.15;;
43088;SDS011;28709;52.030;5.652;2022-12-15T15:53:37;48.30;;;22.65;;
43088;SDS011;28709;52.030;5.652;2022-12-15T15:56:03;36.30;;;19.23;;
43088;SDS011;28709;52.030;5.652;2022-12-15T15:58:33;42.13;;;21.42;;
43088;SDS011;28709;52.030;5.652;2022-12-15T16:01:00;37.17;;;20.30;;
43088;SDS011;28709;52.030;5.652;2022-12-15T16:03:26;38.17;;;20.63;;
43088;SDS011;28709;52.030;5.652;2022-12-15T16:05:51;39.15;;;19.05;;
43088;SDS011;28709;52.030;5.652;2022-12-15T16:08:18;44.92;;;21.73;;
43088;SDS011;28709;52.030;5.652;2022-12-15T16:10:48;42.00;;;20.60;;
43088;SDS011;28709;52.030;5.652;2022-12-15T16:13:15;46.78;;;23.38;;
43088;SDS011;28709;52.030;5.652;2022-12-15T16:15:42;41.72;;;20.02;;
43088;SDS011;28709;52.030;5.652;2022-12-15T16:18:08;42.75;;;18.10;;
43088;SDS011;28709;52.030;5.652;2022-12-15T16:20:34;29.52;;;15.90;;
43088;SDS011;28709;52.030;5.652;2022-12-15T16:23:02;29.83;;;15.20;;
43088;SDS011;28709;52.030;5.652;2022-12-15T16:25:32;41.85;;;20.52;;
43088;SDS011;28709;52.030;5.652;2022-12-15T16:28:02;37.90;;;19.33;;
43088;SDS011;28709;52.030;5.652;2022-12-15T16:30:29;38.33;;;19.10;;
43088;SDS011;28709;52.030;5.652;2022-12-15T16:32:55;39.05;;;21.35;;
43088;SDS011;28709;52.030;5.652;2022-12-15T16:35:24;45.22;;;21.60;;
43088;SDS011;28709;52.030;5.652;2022-12-15T16:37:50;45.95;;;24.80;;
43088;SDS011;28709;52.030;5.652;2022-12-15T16:40:20;46.58;;;23.73;;
43088;SDS011;28709;52.030;5.652;2022-12-15T16:42:53;41.05;;;19.73;;
43088;SDS011;28709;52.030;5.652;2022-12-15T16:45:20;47.67;;;26.15;;
43088;SDS011;28709;52.030;5.652;2022-12-15T16:47:47;46.15;;;24.02;;
43088;SDS011;28709;52.030;5.652;2022-12-15T16:50:14;48.53;;;22.40;;
43088;SDS011;28709;52.030;5.652;2022-12-15T16:52:42;45.05;;;20.90;;
43088;SDS011;28709;52.030;5.652;2022-12-15T16:55:31;41.00;;;20.23;;